Time;durP1;ratioP1;P1;durP2;ratioP2;P2;SDS_P1;SDS_P2;PMS_P1;PMS_P2;Temp;Humidity;BMP_temperature;BMP_pressure;BME280_temperature;BME280_humidity;BME280_pressure;Samples;Min_cycle;Max_cycle;Signal;HPM_P1;HPM_P2
2022/09/10 03:02:56;;;;;;;0.80;0.70;;;16.80;84.20;;;;;;4971232;23;20505;-76
2022/09/10 03:05:22;;;;;;;1.20;0.60;;;16.70;84.30;;;;;;4939932;29;20947;-77
2022/09/10 03:07:49;;;;;;;0.70;0.50;;;16.30;86.00;;;;;;4939901;29;20452;-76
2022/09/10 03:10:16;;;;;;;0.90;0.67;;;16.10;86.60;;;;;;4939708;29;20448;-76
2022/09/10 03:12:42;;;;;;;0.80;0.60;;;16.00;87.00;;;;;;4939532;29;20472;-77
2022/09/10 03:15:11;;;;;;;0.70;0.60;;;16.00;86.90;;;;;;4940820;29;20440;-76
2022/09/10 03:17:38;;;;;;;0.70;0.60;;;15.90;87.50;;;;;;4939553;29;20459;-76
2022/09/10 03:20:08;;;;;;;0.70;0.60;;;15.70;88.20;;;;;;4939025;29;20907;-77
2022/09/10 03:22:34;;;;;;;0.80;0.60;;;15.80;88.70;;;;;;4939506;29;20475;-76
2022/09/10 03:25:01;;;;;;;1.07;0.50;;;15.90;88.30;;;;;;4939360;29;20503;-76
2022/09/10 03:27:27;;;;;;;0.70;0.50;;;16.00;88.40;;;;;;4939218;29;20455;-76
2022/09/10 03:29:54;;;;;;;1.70;0.70;;;16.10;87.90;;;;;;4939398;29;20528;-76
2022/09/10 03:32:21;;;;;;;0.70;0.50;;;16.00;88.00;;;;;;4939234;29;20479;-76
2022/09/10 03:34:48;;;;;;;0.70;0.60;;;16.00;87.70;;;;;;4939233;29;20451;-76
2022/09/10 03:37:17;;;;;;;0.80;0.70;;;16.00;88.20;;;;;;4939482;29;20483;-76
2022/09/10 03:39:44;;;;;;;0.70;0.60;;;16.10;87.70;;;;;;4938867;29;20487;-76
2022/09/10 03:42:11;;;;;;;0.70;0.60;;;16.20;86.70;;;;;;4937737;29;20472;-76
2022/09/10 03:44:37;;;;;;;1.00;0.70;;;16.00;87.70;;;;;;4939076;29;20460;-77
2022/09/10 03:47:04;;;;;;;0.70;0.50;;;15.90;87.90;;;;;;4939228;29;20456;-76
2022/09/10 03:49:31;;;;;;;0.70;0.60;;;15.90;88.20;;;;;;4939140;29;20448;-77
2022/09/10 03:51:59;;;;;;;0.70;0.57;;;15.90;88.00;;;;;;4938978;29;20482;-76
2022/09/10 03:54:27;;;;;;;0.70;0.60;;;16.10;87.90;;;;;;4939020;29;20511;-76
2022/09/10 03:56:53;;;;;;;0.70;0.60;;;15.90;87.80;;;;;;4938856;29;20452;-77
2022/09/10 03:59:20;;;;;;;0.80;0.70;;;15.90;88.00;;;;;;4938809;29;20479;-76
2022/09/10 04:01:47;;;;;;;0.70;0.60;;;15.90;88.00;;;;;;4938508;29;20992;-76
2022/09/10 04:04:15;;;;;;;0.70;0.50;;;15.90;88.60;;;;;;4939049;29;21014;-75
2022/09/10 04:06:43;;;;;;;0.70;0.60;;;15.80;88.20;;;;;;4938804;29;20466;-76
2022/09/10 04:09:10;;;;;;;0.70;0.50;;;15.80;88.60;;;;;;4938746;29;20504;-76
2022/09/10 04:11:39;;;;;;;0.80;0.60;;;15.90;88.20;;;;;;4938900;29;20543;-77
2022/09/10 04:14:06;;;;;;;0.80;0.70;;;15.90;88.20;;;;;;4938410;29;20452;-77
2022/09/10 04:16:34;;;;;;;0.70;0.60;;;15.90;88.20;;;;;;4938696;29;20484;-74
2022/09/10 04:19:01;;;;;;;0.70;0.53;;;15.80;88.10;;;;;;4938706;29;20494;-74
2022/09/10 04:21:28;;;;;;;0.70;0.70;;;15.70;88.30;;;;;;4938675;29;20554;-74
2022/09/10 04:23:55;;;;;;;0.80;0.60;;;15.80;88.50;;;;;;4938832;29;20448;-74
2022/09/10 04:26:22;;;;;;;0.70;0.60;;;16.00;88.00;;;;;;4938565;29;20456;-75
2022/09/10 04:28:50;;;;;;;0.90;0.70;;;16.00;87.60;;;;;;4938392;29;20507;-74
2022/09/10 04:31:16;;;;;;;0.80;0.60;;;16.10;87.20;;;;;;4938091;29;20472;-75
2022/09/10 04:33:43;;;;;;;0.70;0.50;;;16.10;86.90;;;;;;4938269;29;20452;-74
2022/09/10 04:36:11;;;;;;;0.90;0.70;;;16.10;86.70;;;;;;4938122;29;20878;-75
2022/09/10 04:38:40;;;;;;;0.70;0.60;;;15.90;87.00;;;;;;4938021;29;20452;-76
2022/09/10 04:41:07;;;;;;;0.70;0.50;;;16.00;87.50;;;;;;4938133;29;20483;-76
2022/09/10 04:43:35;;;;;;;0.70;0.60;;;15.90;87.60;;;;;;4938581;29;20448;-76
2022/09/10 04:46:03;;;;;;;0.83;0.63;;;15.90;87.40;;;;;;4938005;29;20455;-76
2022/09/10 04:48:29;;;;;;;0.70;0.60;;;15.90;88.00;;;;;;4938430;29;20460;-76
2022/09/10 04:50:56;;;;;;;0.70;0.60;;;15.90;87.50;;;;;;4938043;29;20988;-77
2022/09/10 04:53:24;;;;;;;0.70;0.70;;;15.80;87.50;;;;;;4937490;29;20931;-76
2022/09/10 04:55:51;;;;;;;0.70;0.60;;;15.80;87.90;;;;;;4937930;29;20507;-75
2022/09/10 04:58:18;;;;;;;0.70;0.60;;;15.90;87.40;;;;;;4937939;29;20452;-76
2022/09/10 05:00:45;;;;;;;0.70;0.60;;;15.80;87.80;;;;;;4937770;29;20492;-76
2022/09/10 05:03:13;;;;;;;1.00;0.70;;;15.90;87.60;;;;;;4937971;29;20444;-76
2022/09/10 05:05:41;;;;;;;0.90;0.70;;;15.90;87.40;;;;;;4937938;29;20463;-77
2022/09/10 05:08:08;;;;;;;0.70;0.50;;;16.00;87.80;;;;;;4938360;29;20495;-76
2022/09/10 05:10:37;;;;;;;0.70;0.63;;;16.00;87.30;;;;;;4938262;29;20460;-77
2022/09/10 05:13:04;;;;;;;0.87;0.60;;;16.00;87.60;;;;;;4938134;29;20825;-76
2022/09/10 05:15:31;;;;;;;0.70;0.50;;;16.00;87.20;;;;;;4938175;29;20460;-76
2022/09/10 05:17:58;;;;;;;0.70;0.60;;;16.00;87.00;;;;;;4937953;29;20920;-76
2022/09/10 05:20:26;;;;;;;0.70;0.60;;;16.20;87.10;;;;;;4938177;29;20503;-76
2022/09/10 05:22:53;;;;;;;0.70;0.60;;;16.20;86.70;;;;;;4937755;29;20894;-76
2022/09/10 05:25:20;;;;;;;0.70;0.60;;;16.20;86.40;;;;;;4938309;29;20491;-76
2022/09/10 05:27:47;;;;;;;0.70;0.60;;;16.30;86.70;;;;;;4937772;29;20456;-76
2022/09/10 05:30:13;;;;;;;0.80;0.60;;;16.20;86.80;;;;;;4938045;29;20454;-76
2022/09/10 05:32:40;;;;;;;0.80;0.70;;;16.40;86.60;;;;;;4937597;29;20999;-76
2022/09/10 05:35:08;;;;;;;0.80;0.60;;;16.50;86.30;;;;;;4937302;29;20460;-79
2022/09/10 05:37:36;;;;;;;0.70;0.50;;;16.50;85.70;;;;;;4937088;29;20530;-79
2022/09/10 05:40:04;;;;;;;1.23;0.63;;;16.50;86.10;;;;;;4936931;29;20542;-79
2022/09/10 05:42:31;;;;;;;0.70;0.57;;;16.60;86.00;;;;;;4936995;29;20575;-79
2022/09/10 05:44:58;;;;;;;0.90;0.70;;;16.70;85.80;;;;;;4937035;29;20460;-78
2022/09/10 05:47:25;;;;;;;0.70;0.50;;;16.80;85.30;;;;;;4936997;29;20472;-77
2022/09/10 05:49:52;;;;;;;1.00;0.50;;;16.80;85.20;;;;;;4936977;29;20456;-76
2022/09/10 05:52:19;;;;;;;0.80;0.70;;;16.70;85.40;;;;;;4940893;29;20532;-76
2022/09/10 05:54:47;;;;;;;0.70;0.60;;;16.80;85.00;;;;;;4936838;29;20496;-76
2022/09/10 05:57:13;;;;;;;0.70;0.60;;;16.70;84.70;;;;;;4936617;29;20452;-76
2022/09/10 05:59:40;;;;;;;0.70;0.60;;;16.40;85.50;;;;;;4936739;29;20491;-77
2022/09/10 06:02:06;;;;;;;0.70;0.50;;;16.30;86.40;;;;;;4936680;29;20503;-77
2022/09/10 06:04:33;;;;;;;0.90;0.70;;;16.20;86.70;;;;;;4936202;29;20868;-77
2022/09/10 06:07:01;;;;;;;0.70;0.50;;;16.20;86.70;;;;;;4936586;29;20947;-78
2022/09/10 06:09:27;;;;;;;0.80;0.60;;;16.20;86.80;;;;;;4937020;29;20907;-77
2022/09/10 06:11:55;;;;;;;0.70;0.60;;;16.10;87.30;;;;;;4936628;29;20467;-78
2022/09/10 06:14:23;;;;;;;0.70;0.60;;;16.20;86.70;;;;;;4936495;29;20507;-78
2022/09/10 06:16:50;;;;;;;0.70;0.60;;;16.20;87.30;;;;;;4936462;29;20460;-77
2022/09/10 06:19:18;;;;;;;0.70;0.50;;;16.30;86.80;;;;;;4936374;29;21018;-77
2022/09/10 06:21:45;;;;;;;0.70;0.53;;;16.20;87.00;;;;;;4936861;29;20476;-76
2022/09/10 06:24:12;;;;;;;0.70;0.53;;;16.20;87.10;;;;;;4936581;29;20519;-76
2022/09/10 06:26:39;;;;;;;0.80;0.60;;;16.20;86.80;;;;;;4937639;29;20460;-76
2022/09/10 06:29:07;;;;;;;0.70;0.50;;;16.30;87.00;;;;;;4937474;29;20448;-76
2022/09/10 06:31:34;;;;;;;0.70;0.60;;;16.20;86.60;;;;;;4936692;29;20530;-77
2022/09/10 06:34:02;;;;;;;0.70;0.60;;;16.20;86.80;;;;;;4936764;29;20542;-77
2022/09/10 06:36:29;;;;;;;0.70;0.60;;;16.30;87.40;;;;;;4936817;29;20463;-77
2022/09/10 06:38:57;;;;;;;0.70;0.60;;;16.50;86.80;;;;;;4936462;29;20464;-77
2022/09/10 06:41:24;;;;;;;0.70;0.60;;;16.60;86.50;;;;;;4936352;29;20503;-77
2022/09/10 06:43:51;;;;;;;0.70;0.60;;;16.70;86.00;;;;;;4936981;29;20448;-77
2022/09/10 06:46:20;;;;;;;0.70;0.60;;;16.70;85.80;;;;;;4937020;29;20448;-77
2022/09/10 06:48:47;;;;;;;0.70;0.50;;;16.50;85.20;;;;;;4936237;29;20987;-78
2022/09/10 06:51:14;;;;;;;1.73;0.70;;;16.40;86.70;;;;;;4935670;29;20909;-78
2022/09/10 06:53:42;;;;;;;0.70;0.70;;;16.60;87.20;;;;;;4936031;29;20452;-78
2022/09/10 06:56:11;;;;;;;0.70;0.60;;;16.70;87.00;;;;;;4935979;29;20849;-77
2022/09/10 06:58:39;;;;;;;0.70;0.50;;;16.70;86.40;;;;;;4935958;29;20547;-77
2022/09/10 07:01:07;;;;;;;0.70;0.60;;;16.70;85.80;;;;;;4935692;29;20492;-77
2022/09/10 07:03:35;;;;;;;0.70;0.60;;;16.60;86.60;;;;;;4936221;29;20448;-78
2022/09/10 07:06:04;;;;;;;0.70;0.60;;;16.70;86.50;;;;;;4935976;29;20455;-78
2022/09/10 07:08:31;;;;;;;1.00;0.90;;;16.70;86.40;;;;;;4938360;29;20452;-77
2022/09/10 07:11:02;;;;;;;0.73;0.60;;;16.60;86.80;;;;;;4937637;29;20995;-77
2022/09/10 07:13:29;;;;;;;0.90;0.60;;;16.80;87.10;;;;;;4937668;29;20940;-77
2022/09/10 07:15:56;;;;;;;0.70;0.57;;;16.70;86.50;;;;;;4939988;29;20456;-77
2022/09/10 07:18:23;;;;;;;0.77;0.60;;;16.50;87.60;;;;;;4940042;29;20456;-78
2022/09/10 07:20:51;;;;;;;0.70;0.60;;;16.60;87.70;;;;;;4939353;29;20499;-77
2022/09/10 07:23:20;;;;;;;0.70;0.63;;;16.70;88.10;;;;;;4939055;29;20510;-78
2022/09/10 07:25:47;;;;;;;0.80;0.60;;;16.80;86.70;;;;;;4939925;29;20463;-76
2022/09/10 07:28:16;;;;;;;0.70;0.60;;;16.70;86.40;;;;;;4939918;29;20822;-76
2022/09/10 07:30:46;;;;;;;0.70;0.60;;;16.90;87.50;;;;;;4939429;29;21002;-76
2022/09/10 07:33:12;;;;;;;0.70;0.50;;;17.00;86.80;;;;;;4939627;29;20487;-77
2022/09/10 07:35:39;;;;;;;0.70;0.50;;;17.20;86.80;;;;;;4939293;29;20461;-77
2022/09/10 07:38:14;;;;;;;0.70;0.60;;;17.30;85.60;;;;;;4939158;29;20955;-76
2022/09/10 07:40:41;;;;;;;0.70;0.60;;;17.00;84.90;;;;;;4939158;29;20893;-77
2022/09/10 07:43:07;;;;;;;0.70;0.60;;;17.00;86.50;;;;;;4939293;29;20452;-77
2022/09/10 07:45:34;;;;;;;0.80;0.60;;;17.00;86.00;;;;;;4939463;29;20452;-77
2022/09/10 07:48:01;;;;;;;0.70;0.60;;;16.90;86.00;;;;;;4939549;29;20456;-77
2022/09/10 07:50:27;;;;;;;0.70;0.60;;;17.10;85.80;;;;;;4939538;29;20503;-76
2022/09/10 07:52:54;;;;;;;0.70;0.50;;;17.00;87.10;;;;;;4938968;29;20456;-77
2022/09/10 07:55:22;;;;;;;0.70;0.50;;;17.40;86.80;;;;;;4939559;29;20867;-77
2022/09/10 07:57:49;;;;;;;0.70;0.50;;;17.80;85.20;;;;;;4939010;29;20492;-75
2022/09/10 08:00:17;;;;;;;0.70;0.50;;;18.40;81.80;;;;;;4938903;29;20494;-76
2022/09/10 08:02:45;;;;;;;0.70;0.60;;;18.40;80.70;;;;;;4938531;29;20578;-77
2022/09/10 08:05:12;;;;;;;0.70;0.60;;;18.60;82.00;;;;;;4939106;29;20558;-77
2022/09/10 08:07:40;;;;;;;0.70;0.50;;;19.00;81.70;;;;;;4939025;29;20464;-77
2022/09/10 08:10:09;;;;;;;0.70;0.50;;;19.50;81.40;;;;;;4938584;29;20948;-77
2022/09/10 08:12:38;;;;;;;0.80;0.60;;;19.80;76.90;;;;;;4938745;29;20534;-77
2022/09/10 08:15:06;;;;;;;0.70;0.60;;;19.50;77.90;;;;;;4938879;29;20869;-76
2022/09/10 08:17:35;;;;;;;0.70;0.50;;;19.40;76.90;;;;;;4938508;29;20459;-76
2022/09/10 08:20:04;;;;;;;0.70;0.50;;;19.50;78.00;;;;;;4938408;29;20451;-77
2022/09/10 08:22:31;;;;;;;0.70;0.50;;;19.70;78.40;;;;;;4938350;29;20486;-77
2022/09/10 08:24:57;;;;;;;0.70;0.50;;;19.80;77.60;;;;;;4938487;29;20539;-76
2022/09/10 08:27:24;;;;;;;0.77;0.60;;;19.60;76.30;;;;;;4937669;29;20456;-76
2022/09/10 08:29:53;;;;;;;0.70;0.50;;;19.50;77.70;;;;;;4938192;29;20511;-77
2022/09/10 08:32:20;;;;;;;0.70;0.50;;;19.40;76.90;;;;;;4938267;29;20476;-76
2022/09/10 08:34:48;;;;;;;0.80;0.60;;;19.40;77.20;;;;;;4938325;29;20455;-77
2022/09/10 08:37:15;;;;;;;0.80;0.50;;;19.20;77.30;;;;;;4938298;29;20453;-76
2022/09/10 08:39:42;;;;;;;0.70;0.50;;;19.10;78.40;;;;;;4938145;29;20469;-77
2022/09/10 08:42:16;;;;;;;0.70;0.53;;;19.00;78.30;;;;;;4937946;29;20586;-76
2022/09/10 08:44:48;;;;;;;0.70;0.53;;;18.80;76.80;;;;;;4937898;29;20432;-76
2022/09/10 08:47:28;;;;;;;0.70;0.50;;;18.70;77.70;;;;;;4938123;29;20447;-76
2022/09/10 08:49:59;;;;;;;0.70;0.50;;;18.60;79.20;;;;;;4938219;29;20472;-76
2022/09/10 08:52:32;;;;;;;0.70;0.60;;;18.70;77.10;;;;;;4938090;29;20562;-76
2022/09/10 08:55:06;;;;;;;0.70;0.50;;;18.70;78.10;;;;;;4938313;29;20448;-76
2022/09/10 08:57:39;;;;;;;0.80;0.70;;;18.80;78.00;;;;;;4937990;29;20440;-76
2022/09/10 09:00:12;;;;;;;0.70;0.50;;;18.70;78.60;;;;;;4938420;29;20441;-78
2022/09/10 09:02:50;;;;;;;0.80;0.60;;;18.70;78.10;;;;;;4937655;29;20503;-79
2022/09/10 09:05:19;;;;;;;0.70;0.60;;;19.00;78.20;;;;;;4938365;29;20440;-79
2022/09/10 09:07:48;;;;;;;0.80;0.70;;;19.20;75.20;;;;;;4937971;29;20452;-78
2022/09/10 09:10:20;;;;;;;0.70;0.70;;;19.40;74.50;;;;;;4939574;29;20484;-78
2022/09/10 09:13:11;;;;;;;0.70;0.50;;;19.40;74.50;;;;;;4937475;29;20870;-78
2022/09/10 09:15:50;;;;;;;0.83;0.60;;;19.50;74.00;;;;;;4940680;29;20508;-79
2022/09/10 09:18:26;;;;;;;0.90;0.60;;;19.60;72.50;;;;;;4941066;29;20472;-77
2022/09/10 09:20:57;;;;;;;0.70;0.60;;;19.80;73.20;;;;;;4938546;29;20495;-76
2022/09/10 09:23:27;;;;;;;0.80;0.60;;;19.80;70.70;;;;;;4938593;29;20432;-77
2022/09/10 09:26:02;;;;;;;0.70;0.60;;;19.50;73.50;;;;;;4937815;29;20440;-74
2022/09/10 09:28:37;;;;;;;0.80;0.60;;;19.40;72.60;;;;;;4937561;29;20440;-78
2022/09/10 09:31:11;;;;;;;0.80;0.60;;;19.20;72.70;;;;;;4937158;29;20467;-77
2022/09/10 09:33:40;;;;;;;0.70;0.50;;;19.10;73.20;;;;;;4937203;29;20435;-77
2022/09/10 09:36:07;;;;;;;0.70;0.53;;;19.00;74.00;;;;;;4937136;29;20459;-74
2022/09/10 09:38:38;;;;;;;0.70;0.60;;;18.90;74.10;;;;;;4936845;29;20452;-76
2022/09/10 09:41:08;;;;;;;0.70;0.60;;;19.00;74.20;;;;;;4936704;29;20491;-74
2022/09/10 09:43:49;;;;;;;0.90;0.60;;;19.00;74.10;;;;;;4936832;29;20503;-75
2022/09/10 09:46:18;;;;;;;0.70;0.60;;;18.90;75.00;;;;;;4936464;29;20972;-75
2022/09/10 09:48:47;;;;;;;0.90;0.60;;;18.90;74.10;;;;;;4936817;29;20465;-75
2022/09/10 09:51:19;;;;;;;0.70;0.50;;;18.90;73.80;;;;;;4936597;29;20471;-76
2022/09/10 09:53:47;;;;;;;0.70;0.60;;;18.80;73.70;;;;;;4936603;29;20510;-76
2022/09/10 09:56:21;;;;;;;0.80;0.60;;;18.70;74.30;;;;;;4936570;29;20452;-76
2022/09/10 09:58:49;;;;;;;0.80;0.60;;;18.60;76.20;;;;;;4936606;29;20459;-75
2022/09/10 10:01:19;;;;;;;0.70;0.60;;;18.70;74.80;;;;;;4937637;29;20579;-76
2022/09/10 10:03:57;;;;;;;0.80;0.70;;;18.70;75.60;;;;;;4936626;29;20452;-77
2022/09/10 10:06:27;;;;;;;0.90;0.60;;;18.80;75.10;;;;;;4936772;29;20795;-77
2022/09/10 10:09:02;;;;;;;0.70;0.60;;;18.60;74.80;;;;;;4936016;29;20456;-77
2022/09/10 10:11:48;;;;;;;0.73;0.63;;;18.80;76.40;;;;;;4936371;29;20475;-77
2022/09/10 10:14:24;;;;;;;0.80;0.60;;;19.10;76.10;;;;;;4936317;29;20467;-77
2022/09/10 10:16:53;;;;;;;0.80;0.70;;;19.40;74.00;;;;;;4936238;29;20499;-77
2022/09/10 10:19:33;;;;;;;0.70;0.50;;;19.40;73.40;;;;;;4936178;29;20456;-77
2022/09/10 10:22:24;;;;;;;0.90;0.60;;;19.50;73.50;;;;;;4936088;29;20487;-77
2022/09/10 10:24:53;;;;;;;0.80;0.60;;;19.50;72.90;;;;;;4935898;29;20984;-78
2022/09/10 10:27:25;;;;;;;0.80;0.50;;;19.50;74.40;;;;;;4936134;29;20468;-77
2022/09/10 10:29:57;;;;;;;0.70;0.50;;;19.70;72.80;;;;;;4936152;29;20850;-76
2022/09/10 10:32:33;;;;;;;0.80;0.70;;;19.50;72.60;;;;;;4936161;29;20826;-78
2022/09/10 10:35:18;;;;;;;0.70;0.60;;;19.50;73.90;;;;;;4936162;29;20428;-78
2022/09/10 10:37:59;;;;;;;0.70;0.50;;;19.60;72.10;;;;;;4936580;29;20459;-78
2022/09/10 10:40:32;;;;;;;0.70;0.60;;;19.80;73.20;;;;;;4937274;29;20440;-76
2022/09/10 10:43:08;;;;;;;0.80;0.60;;;19.90;70.70;;;;;;4937816;29;20424;-74
2022/09/10 10:45:40;;;;;;;0.73;0.60;;;19.80;72.20;;;;;;4937172;29;20809;-75
2022/09/10 10:48:12;;;;;;;0.83;0.57;;;19.90;69.10;;;;;;4937192;29;20445;-77
2022/09/10 10:50:52;;;;;;;0.70;0.60;;;19.90;69.30;;;;;;4938763;29;20561;-76
2022/09/10 10:53:33;;;;;;;0.70;0.50;;;20.20;69.70;;;;;;4940480;29;20778;-76
2022/09/10 10:56:07;;;;;;;0.70;0.60;;;20.40;68.30;;;;;;4940199;29;20521;-76
2022/09/10 10:58:48;;;;;;;0.70;0.60;;;21.00;69.50;;;;;;4940327;29;20435;-77
2022/09/10 11:01:20;;;;;;;0.80;0.60;;;20.90;67.20;;;;;;4939217;29;20840;-75
2022/09/10 11:03:55;;;;;;;0.90;0.60;;;21.10;65.80;;;;;;4942317;29;20463;-82
2022/09/10 11:06:27;;;;;;;0.80;0.60;;;21.20;65.20;;;;;;4947203;29;20930;-81
2022/09/10 11:08:58;;;;;;;0.70;0.50;;;21.40;65.60;;;;;;4947621;29;20449;-82
2022/09/10 11:11:31;;;;;;;0.70;0.50;;;21.40;64.70;;;;;;4943825;29;20480;-79
2022/09/10 11:14:06;;;;;;;0.70;0.50;;;21.20;64.40;;;;;;4943137;29;20436;-79
2022/09/10 11:16:40;;;;;;;0.70;0.60;;;21.00;64.80;;;;;;4941305;29;20428;-77
2022/09/10 11:19:15;;;;;;;0.93;0.60;;;20.90;65.80;;;;;;4940055;29;20468;-77
2022/09/10 11:21:51;;;;;;;0.70;0.50;;;21.20;65.80;;;;;;4940133;29;20491;-78
2022/09/10 11:24:22;;;;;;;0.70;0.60;;;21.50;64.70;;;;;;4940120;29;20447;-78
2022/09/10 11:26:53;;;;;;;1.00;0.60;;;21.50;63.50;;;;;;4940451;29;20443;-78
2022/09/10 11:29:33;;;;;;;0.80;0.70;;;21.60;63.10;;;;;;4941851;29;20478;-77
2022/09/10 11:32:05;;;;;;;0.80;0.60;;;21.70;63.60;;;;;;4940747;29;20478;-78
2022/09/10 11:34:42;;;;;;;0.70;0.50;;;22.00;61.50;;;;;;4940926;29;20444;-76
2022/09/10 11:37:16;;;;;;;1.00;0.73;;;22.30;60.90;;;;;;4939863;29;20444;-77
2022/09/10 11:39:47;;;;;;;0.90;0.70;;;22.40;60.50;;;;;;4939962;29;20908;-77
2022/09/10 11:42:19;;;;;;;0.73;0.67;;;22.70;60.70;;;;;;4940538;29;20499;-78
2022/09/10 11:44:57;;;;;;;0.70;0.70;;;22.80;58.60;;;;;;4940155;29;20455;-77
2022/09/10 11:47:27;;;;;;;0.70;0.60;;;22.80;59.20;;;;;;4938830;29;20503;-77
2022/09/10 11:50:00;;;;;;;0.90;0.60;;;22.90;60.00;;;;;;4939550;29;20440;-76
2022/09/10 11:52:29;;;;;;;0.70;0.60;;;23.10;61.20;;;;;;4939862;29;20844;-76
2022/09/10 11:54:58;;;;;;;0.70;0.50;;;22.90;58.80;;;;;;4940050;29;20490;-77
2022/09/10 11:57:37;;;;;;;0.70;0.60;;;22.60;59.10;;;;;;4938981;29;20460;-77
2022/09/10 12:00:14;;;;;;;0.70;0.50;;;22.90;60.50;;;;;;4938640;29;20432;-76
2022/09/10 12:03:12;;;;;;;0.80;0.60;;;22.90;58.30;;;;;;4936993;29;20915;-78
2022/09/10 12:05:50;;;;;;;0.70;0.60;;;22.90;58.70;;;;;;4938246;29;20802;-77
2022/09/10 12:08:28;;;;;;;0.70;0.50;;;23.00;57.80;;;;;;4938464;29;20436;-75
2022/09/10 12:11:05;;;;;;;0.70;0.50;;;23.10;58.10;;;;;;4938372;29;20503;-75
2022/09/10 12:13:35;;;;;;;0.70;0.60;;;23.00;58.70;;;;;;4938476;29;20432;-77
2022/09/10 12:16:09;;;;;;;0.70;0.50;;;23.10;59.50;;;;;;4938383;29;20705;-76
2022/09/10 12:18:41;;;;;;;0.70;0.60;;;23.20;57.10;;;;;;4938349;29;20458;-74
2022/09/10 12:21:18;;;;;;;0.70;0.53;;;23.10;57.30;;;;;;4938070;29;20476;-74
2022/09/10 12:23:46;;;;;;;0.70;0.50;;;23.00;57.80;;;;;;4938150;29;20492;-77
2022/09/10 12:26:18;;;;;;;0.80;0.60;;;23.20;57.40;;;;;;4938061;29;20464;-73
2022/09/10 12:29:05;;;;;;;0.70;0.53;;;23.10;57.10;;;;;;4938000;29;20440;-74
2022/09/10 12:32:21;;;;;;;0.80;0.60;;;23.20;57.00;;;;;;4937831;29;20479;-74
2022/09/10 12:34:49;;;;;;;0.70;0.50;;;23.40;56.00;;;;;;4878936;29;20523;-76
2022/09/10 12:37:25;;;;;;;0.70;0.57;;;23.40;56.50;;;;;;4924596;29;20563;-76
2022/09/10 12:40:30;;;;;;;0.70;0.50;;;23.30;57.30;;;;;;4937698;29;20555;-76
2022/09/10 12:43:00;;;;;;;0.70;0.60;;;23.40;56.90;;;;;;4937355;29;20484;-77
2022/09/10 12:46:00;;;;;;;0.70;0.50;;;23.30;57.40;;;;;;4937430;29;20941;-78
2022/09/10 12:48:28;;;;;;;0.70;0.50;;;22.80;57.90;;;;;;4934415;29;20452;-77
2022/09/10 12:51:00;;;;;;;0.80;0.60;;;22.70;58.70;;;;;;4938982;29;20539;-78
2022/09/10 12:53:56;;;;;;;0.73;0.57;;;22.60;58.60;;;;;;4941299;29;20943;-78
2022/09/10 12:56:58;;;;;;;0.70;0.50;;;22.60;58.10;;;;;;4938662;29;20456;-78
2022/09/10 12:59:55;;;;;;;0.70;0.50;;;22.40;58.80;;;;;;4937836;29;20431;-79
2022/09/10 13:02:29;;;;;;;0.80;0.50;;;22.30;59.20;;;;;;4937136;29;20999;-78
2022/09/10 13:05:00;;;;;;;0.70;0.50;;;22.30;59.20;;;;;;4937480;29;20450;-78
2022/09/10 13:07:35;;;;;;;0.83;0.50;;;22.10;58.50;;;;;;4937040;29;20436;-77
2022/09/10 13:10:07;;;;;;;0.70;0.60;;;21.80;59.20;;;;;;4937079;29;20923;-75
2022/09/10 13:12:36;;;;;;;0.80;0.60;;;21.70;60.60;;;;;;4937165;29;21051;-78
2022/09/10 13:15:05;;;;;;;0.73;0.50;;;21.50;60.50;;;;;;4937761;29;20847;-77
2022/09/10 13:18:00;;;;;;;0.80;0.70;;;21.50;60.70;;;;;;4937260;29;20821;-77
2022/09/10 13:20:31;;;;;;;0.80;0.63;;;21.10;61.50;;;;;;4937579;29;20856;-78
2022/09/10 13:23:02;;;;;;;0.70;0.60;;;20.90;62.50;;;;;;4936955;29;20488;-79
2022/09/10 13:25:40;;;;;;;0.80;0.70;;;20.90;63.50;;;;;;4937069;29;20440;-78
2022/09/10 13:28:45;;;;;;;0.70;0.70;;;20.70;62.80;;;;;;4936969;29;20432;-78
2022/09/10 13:31:20;;;;;;;0.70;0.60;;;20.70;63.10;;;;;;4936897;29;20843;-77
2022/09/10 13:34:14;;;;;;;0.70;0.60;;;20.70;63.70;;;;;;4936844;29;20447;-77
2022/09/10 13:36:51;;;;;;;0.70;0.50;;;20.70;63.10;;;;;;4936828;29;20496;-77
2022/09/10 13:39:49;;;;;;;0.80;0.60;;;20.70;64.00;;;;;;4936772;29;20440;-77
2022/09/10 13:42:27;;;;;;;0.80;0.60;;;20.30;64.10;;;;;;4926614;29;20554;-76
2022/09/10 13:45:07;;;;;;;0.70;0.50;;;20.20;65.40;;;;;;4936427;29;20912;-75
2022/09/10 13:47:41;;;;;;;0.70;0.60;;;20.10;65.60;;;;;;4936617;29;20488;-76
2022/09/10 13:50:14;;;;;;;0.80;0.60;;;20.30;66.60;;;;;;4936331;29;20799;-76
2022/09/10 13:52:44;;;;;;;0.70;0.60;;;20.60;65.00;;;;;;4936704;29;20551;-77
2022/09/10 13:55:18;;;;;;;0.70;0.60;;;20.80;65.00;;;;;;4936599;29;20468;-77
2022/09/10 13:57:47;;;;;;;0.70;0.50;;;20.90;65.40;;;;;;4936694;29;20464;-77
2022/09/10 14:00:20;;;;;;;0.70;0.60;;;20.80;63.80;;;;;;4936559;29;20460;-76
2022/09/10 14:02:51;;;;;;;0.80;0.60;;;20.70;65.20;;;;;;4936577;29;20488;-73
2022/09/10 14:05:34;;;;;;;0.70;0.50;;;20.60;65.20;;;;;;4936685;29;20444;-76
2022/09/10 14:08:05;;;;;;;0.70;0.60;;;20.50;65.40;;;;;;4936454;29;20436;-76
2022/09/10 14:10:36;;;;;;;0.80;0.60;;;20.40;64.80;;;;;;4936334;29;20432;-76
2022/09/10 14:13:02;;;;;;;0.70;0.50;;;20.30;64.80;;;;;;4936436;29;20436;-77
2022/09/10 14:15:38;;;;;;;0.70;0.50;;;20.40;65.20;;;;;;4936335;29;20452;-76
2022/09/10 14:18:08;;;;;;;0.70;0.50;;;20.70;65.20;;;;;;4936002;29;21002;-76
2022/09/10 14:20:36;;;;;;;0.80;0.63;;;20.80;64.40;;;;;;4936217;29;20436;-76
2022/09/10 14:23:05;;;;;;;0.70;0.60;;;20.80;64.20;;;;;;4935939;29;20584;-76
2022/09/10 14:25:33;;;;;;;0.70;0.57;;;20.80;64.90;;;;;;4935586;29;20589;-76
2022/09/10 14:28:27;;;;;;;1.07;0.60;;;20.60;65.10;;;;;;4936122;29;20452;-77
2022/09/10 14:31:22;;;;;;;0.80;0.50;;;20.60;66.10;;;;;;4901947;29;21042;-76
2022/09/10 14:33:50;;;;;;;0.70;0.60;;;20.50;65.90;;;;;;4936104;29;20562;-76
2022/09/10 14:36:21;;;;;;;0.73;0.50;;;20.40;65.90;;;;;;4935788;29;20973;-76
2022/09/10 14:38:59;;;;;;;0.70;0.50;;;20.50;66.30;;;;;;4935688;29;20909;-76
2022/09/10 14:41:28;;;;;;;0.70;0.60;;;20.30;67.00;;;;;;4935954;29;20479;-76
2022/09/10 14:44:26;;;;;;;0.70;0.60;;;20.10;66.20;;;;;;4935625;29;21022;-76
2022/09/10 14:46:56;;;;;;;0.70;0.60;;;19.90;68.00;;;;;;4935755;29;20545;-76
2022/09/10 14:49:27;;;;;;;0.70;0.50;;;20.90;65.10;;;;;;4935986;29;20452;-76
2022/09/10 14:51:54;;;;;;;0.70;0.50;;;21.60;63.70;;;;;;4935956;29;20464;-76
2022/09/10 14:54:21;;;;;;;0.70;0.57;;;21.70;62.80;;;;;;4935945;29;20444;-76
2022/09/10 14:56:49;;;;;;;1.03;0.60;;;22.10;62.40;;;;;;4935923;29;20483;-76
2022/09/10 14:59:18;;;;;;;1.00;0.70;;;21.90;61.50;;;;;;4935912;29;20824;-76
2022/09/10 15:01:47;;;;;;;0.90;0.50;;;21.40;61.60;;;;;;4935537;29;20515;-76
2022/09/10 15:04:15;;;;;;;0.70;0.50;;;21.00;62.60;;;;;;4935806;29;20494;-76
2022/09/10 15:06:43;;;;;;;0.70;0.50;;;21.00;63.30;;;;;;4935870;29;20507;-76
2022/09/10 15:09:11;;;;;;;0.70;0.60;;;21.20;63.50;;;;;;4935765;29;20491;-73
2022/09/10 15:11:41;;;;;;;0.70;0.50;;;21.30;63.10;;;;;;4935865;29;20499;-73
2022/09/10 15:14:12;;;;;;;0.70;0.50;;;21.20;62.80;;;;;;4935948;29;20452;-73
2022/09/10 15:16:39;;;;;;;0.70;0.50;;;21.00;63.10;;;;;;4937309;29;20919;-76
2022/09/10 15:19:05;;;;;;;0.70;0.60;;;20.60;64.20;;;;;;4935852;29;20464;-73
2022/09/10 15:21:32;;;;;;;0.80;0.60;;;20.70;64.60;;;;;;4935747;29;20503;-73
2022/09/10 15:24:00;;;;;;;0.70;0.50;;;20.80;64.10;;;;;;4936035;29;20479;-73
2022/09/10 15:26:27;;;;;;;0.70;0.60;;;20.50;65.00;;;;;;4935753;29;20456;-73
2022/09/10 15:28:54;;;;;;;0.73;0.50;;;20.50;65.00;;;;;;4935749;29;20448;-73
2022/09/10 15:31:22;;;;;;;0.70;0.57;;;20.50;65.80;;;;;;4935829;29;20472;-73
2022/09/10 15:33:48;;;;;;;0.70;0.50;;;20.20;65.60;;;;;;4935730;29;20455;-73
2022/09/10 15:36:15;;;;;;;0.70;0.50;;;20.00;66.90;;;;;;4936481;29;20928;-72
2022/09/10 15:38:42;;;;;;;1.00;0.60;;;19.90;66.30;;;;;;4939219;29;20484;-73
2022/09/10 15:41:12;;;;;;;0.70;0.50;;;19.70;66.70;;;;;;4938912;29;20530;-73
2022/09/10 15:43:42;;;;;;;0.70;0.50;;;19.70;67.10;;;;;;4938897;29;20503;-72
2022/09/10 15:46:09;;;;;;;0.70;0.60;;;19.70;67.70;;;;;;4938742;29;21007;-73
2022/09/10 15:48:36;;;;;;;0.70;0.50;;;19.60;67.90;;;;;;4938575;29;20971;-73
2022/09/10 15:51:04;;;;;;;1.47;0.60;;;19.50;68.60;;;;;;4938806;29;20527;-73
2022/09/10 15:53:32;;;;;;;0.70;0.60;;;19.60;70.50;;;;;;4938451;29;20932;-73
2022/09/10 15:56:01;;;;;;;0.70;0.50;;;19.50;72.70;;;;;;4938754;29;20544;-73
2022/09/10 15:58:30;;;;;;;0.70;0.60;;;19.40;74.20;;;;;;4938542;29;20538;-73
2022/09/10 16:01:02;;;;;;;0.80;0.60;;;19.30;75.00;;;;;;4938481;29;20491;-73
2022/09/10 16:03:28;;;;;;;0.80;0.60;;;19.30;75.70;;;;;;4941389;29;20472;-74
2022/09/10 16:05:59;;;;;;;0.70;0.50;;;19.30;74.90;;;;;;4945000;29;20478;-77
2022/09/10 16:08:26;;;;;;;0.70;0.60;;;19.40;75.10;;;;;;4946495;29;20436;-78
2022/09/10 16:10:53;;;;;;;0.80;0.57;;;19.50;75.00;;;;;;4945815;29;20479;-77